メインページ
METAR-TAF:

METAR-TAF

空港 :

ベオグラード, セルビア

ベオグラード・ニコラ・テスラ空港

緯度: 44-49N, 経度: 020-17E, 海抜: 96m

現時点の気象観測

当レポートは38分前の10:00(UTC)に作成
南/南西の風 5kt、から西/南西の間で変化する
気温 7°C
湿度 87%
気圧 1015 hPa
視程: 5000m
高度800ftの雲はほとんどない

METAR: LYBE 191000Z 21005KT 190V250 5000 BR FEW008 07/05 Q1015 BECMG 6000 NSW

時間: 11:38 (10:38 UTC)

予報

当レポートは5時間38分前の05:00(UTC)に作成
予報は19日の 06時(UTC)から 20日の 06時(UTC)まで有効
西の風 6kt
視程: 0800m
高度4000ftの雲は散在している
19日の 06時(UTC)から 19日の 07時(UTC)まで一時的に
視程: 0200m
高度200ftの
19日の 07時(UTC)から 19日の 09時(UTC)まで徐々に
視程: 3000m
19日の 09時(UTC)から 19日の 11時(UTC)まで徐々に
視程: 6000m
19日の 18時(UTC)から 19日の 24時(UTC)まで一時的に
視程: 5000m
高度1300ftの千切れ雲あり
高度2700ftの千切れ雲あり
小雨
20日の 03時(UTC)から 20日の 05時(UTC)まで徐々に
北西の風 15kt

TAF: LYBE 190500Z 1906/2006 26006KT 0800 FG SCT040 TX08/1912Z TN01/2005Z TEMPO 1906/1907 0200 VV002 BECMG 1907/1909 3000 BR BECMG 1909/1911 6000 NSW TEMPO 1918/1924 5000 -RA BKN013 BKN027 BECMG 2003/2005 32015KT

4,000以上の空港の気象観測と天気予報(METAR報とTAF報)

利用可能な観測所は地図上に黄色い丸と赤い丸で示す。

丸の上にカーソルを重ねると観測所名を参照できる。

次にクリックすると気象観測と天気予報を参照できる。

マップの切り替え:黒色「×」印の緑ボタンをクリックして拡大、「-」印の緑ボタンをクリックして縮小、緑色の三角印をクリックして隣りの地図に切り替え


METAR-TAF: